Time;durP1;ratioP1;P1;durP2;ratioP2;P2;SDS_P1;SDS_P2;PMS_P1;PMS_P2;Temp;Humidity;BMP_temperature;BMP_pressure;BME280_temperature;BME280_humidity;BME280_pressure;Samples;Min_cycle;Max_cycle;Signal;HPM_P1;HPM_P2
2022/07/14 04:03:39;;;;;;;4.12;2.30;;;;;;;19.74;54.28;100617.91;3999166;27;20121;-87
2022/07/14 04:06:42;;;;;;;3.58;2.65;;;;;;;19.82;55.02;100603.09;5346113;33;33485;-86
2022/07/14 04:09:46;;;;;;;4.93;2.58;;;;;;;19.88;55.13;100608.44;5366449;33;34216;-87
2022/07/14 04:12:50;;;;;;;4.35;2.90;;;;;;;20.00;54.95;100610.37;5366074;33;35445;-87
2022/07/14 04:15:53;;;;;;;3.22;2.58;;;;;;;20.09;55.30;100609.81;5359361;33;34527;-86
2022/07/14 04:18:57;;;;;;;3.60;2.53;;;;;;;20.24;53.51;100612.12;5349551;33;32360;-87
2022/07/14 04:22:00;;;;;;;5.75;2.42;;;;;;;20.38;53.55;100612.69;5362903;33;34028;-86
2022/07/14 04:25:23;;;;;;;2.85;2.40;;;;;;;20.50;53.59;100616.25;5352494;33;34146;-87
2022/07/14 04:28:27;;;;;;;2.37;2.12;;;;;;;20.59;54.73;100617.63;5344491;33;34764;-87
2022/07/14 04:31:30;;;;;;;2.20;2.00;;;;;;;20.57;54.37;100616.19;5331750;33;32459;-86
2022/07/14 04:39:07;;;;;;;2.33;1.80;;;;;;;20.80;53.45;100598.94;5364948;33;34822;-87
2022/07/14 04:42:15;;;;;;;2.83;2.00;;;;;;;21.11;51.30;100603.13;5362736;33;34917;-87
2022/07/14 04:45:20;;;;;;;6.65;2.03;;;;;;;21.38;49.97;100600.72;5362319;33;34168;-87
2022/07/14 04:48:25;;;;;;;2.28;1.90;;;;;;;21.68;48.77;100603.22;5361965;33;33877;-87
2022/07/14 04:54:50;;;;;;;4.10;2.25;;;;;;;22.31;46.58;100593.06;5361758;33;33924;-87
2022/07/14 04:57:53;;;;;;;2.45;2.00;;;;;;;22.69;46.15;100596.91;5361372;33;34509;-87
2022/07/14 05:01:00;;;;;;;2.33;2.03;;;;;;;22.94;46.46;100595.63;5348179;33;32662;-86
2022/07/14 05:04:03;;;;;;;2.28;1.60;;;;;;;23.14;46.20;100604.16;5347013;33;33796;-87
2022/07/14 05:07:07;;;;;;;1.92;1.60;;;;;;;23.13;46.37;100602.47;5343021;33;35950;-87
2022/07/14 05:10:11;;;;;;;3.03;1.98;;;;;;;23.12;46.06;100605.47;5343518;33;35217;-87
2022/07/14 05:13:15;;;;;;;4.50;2.40;;;;;;;23.23;46.31;100610.03;5343901;33;34137;-87
2022/07/14 05:16:55;;;;;;;7.12;2.50;;;;;;;23.31;45.75;100607.66;5344084;33;35734;-87
2022/07/14 05:20:18;;;;;;;6.97;2.15;;;;;;;23.45;45.26;100612.75;5339921;33;34885;-87
2022/07/14 05:23:21;;;;;;;11.15;2.37;;;;;;;23.62;45.22;100615.41;5343222;33;34015;-87
2022/07/14 05:26:25;;;;;;;3.53;1.70;;;;;;;23.71;43.94;100611.94;5344666;33;33210;-87
2022/07/14 05:29:29;;;;;;;1.87;1.70;;;;;;;23.94;43.92;100615.47;5344027;33;33671;-86
2022/07/14 05:32:33;;;;;;;2.53;2.03;;;;;;;24.11;43.51;100609.84;5342638;33;33871;-87
2022/07/14 05:35:36;;;;;;;2.40;1.83;;;;;;;24.29;42.55;100611.38;5329772;33;32209;-87
2022/07/14 05:38:39;;;;;;;2.70;1.80;;;;;;;24.38;42.47;100618.03;5342810;33;34425;-87
2022/07/14 05:41:43;;;;;;;2.47;1.65;;;;;;;24.39;42.17;100605.94;5342931;33;33982;-90
2022/07/14 05:44:46;;;;;;;2.95;2.05;;;;;;;24.51;42.38;100606.63;5342657;33;33666;-90
2022/07/14 05:47:49;;;;;;;2.05;1.33;;;;;;;24.62;41.62;100610.25;5331313;33;32470;-90
2022/07/14 05:51:02;;;;;;;7.25;2.00;;;;;;;24.90;41.18;100598.03;5357214;33;34271;-87
2022/07/14 05:54:05;;;;;;;3.40;1.67;;;;;;;25.01;41.38;100601.66;5355385;33;34871;-87
2022/07/14 05:57:13;;;;;;;3.85;1.90;;;;;;;25.11;40.59;100601.72;5360862;33;34414;-87
2022/07/14 06:00:17;;;;;;;2.55;1.73;;;;;;;25.25;40.04;100599.31;5360287;33;34452;-87
2022/07/14 06:03:21;;;;;;;2.25;1.50;;;;;;;25.47;39.85;100590.84;5360499;33;34554;-87
2022/07/14 06:06:25;;;;;;;2.35;1.67;;;;;;;25.71;39.86;100585.63;5359880;33;33418;-87
2022/07/14 06:09:28;;;;;;;6.78;1.70;;;;;;;25.81;39.09;100580.16;5346929;33;32331;-87
2022/07/14 06:12:32;;;;;;;3.35;1.58;;;;;;;25.93;38.91;100577.97;5352193;33;33932;-87
2022/07/14 06:15:35;;;;;;;2.67;1.50;;;;;;;26.13;39.22;100576.31;5335690;33;34312;-87
2022/07/14 06:18:39;;;;;;;2.70;1.30;;;;;;;26.30;38.89;100582.38;5350139;33;33827;-87
2022/07/14 06:21:43;;;;;;;1.95;1.35;;;;;;;26.53;38.29;100575.47;5364112;27;34533;-87
2022/07/14 06:24:48;;;;;;;2.55;1.60;;;;;;;26.76;37.59;100582.31;5363162;33;34027;-87
2022/07/14 06:27:51;;;;;;;4.05;1.52;;;;;;;26.94;37.17;100571.75;5365032;33;33584;-87
2022/07/14 06:30:55;;;;;;;3.20;1.70;;;;;;;27.21;36.87;100576.94;5373301;33;34510;-87
2022/07/14 06:33:58;;;;;;;3.60;1.27;;;;;;;27.42;36.16;100575.69;5353354;33;34510;-87
2022/07/14 06:37:02;;;;;;;1.83;1.20;;;;;;;27.55;35.91;100571.47;5355131;33;35243;-87
2022/07/14 06:40:07;;;;;;;2.22;1.30;;;;;;;27.69;35.63;100572.47;5354092;33;35066;-87
2022/07/14 06:43:11;;;;;;;1.75;1.65;;;;;;;27.86;35.64;100565.75;5361512;33;33059;-87
2022/07/14 06:46:17;;;;;;;5.50;1.23;;;;;;;27.97;33.82;100561.78;5361849;33;34281;-87
2022/07/14 06:49:20;;;;;;;0.90;0.90;;;;;;;28.06;33.36;100560.06;5353689;33;34628;-87
2022/07/14 06:52:24;;;;;;;1.48;1.00;;;;;;;28.30;33.26;100560.09;5365916;33;33674;-86
2022/07/14 06:55:27;;;;;;;1.98;1.27;;;;;;;28.43;32.21;100559.47;5371090;33;33457;-87
2022/07/14 06:58:30;;;;;;;1.85;0.93;;;;;;;28.55;32.17;100552.66;5364838;33;35216;-87
2022/07/14 07:01:34;;;;;;;1.12;0.98;;;;;;;28.82;31.65;100552.91;5347717;33;32251;-86
2022/07/14 07:04:37;;;;;;;2.55;0.90;;;;;;;29.16;30.68;100546.41;5364781;33;32882;-86
2022/07/14 07:07:40;;;;;;;1.15;1.05;;;;;;;29.36;30.68;100548.06;5361814;33;33583;-87
2022/07/14 07:10:43;;;;;;;6.75;1.02;;;;;;;29.75;30.31;100556.13;5358464;33;34004;-87
2022/07/14 07:13:46;;;;;;;2.90;0.90;;;;;;;29.98;29.80;100554.34;5360898;33;33996;-86
2022/07/14 07:16:50;;;;;;;5.40;1.15;;;;;;;30.15;29.85;100550.16;5361848;33;34505;-87
2022/07/14 07:19:52;;;;;;;1.08;0.80;;;;;;;29.82;29.67;100548.22;5360696;33;33975;-87
2022/07/14 07:22:55;;;;;;;2.05;1.08;;;;;;;29.69;30.26;100550.94;5344933;33;33961;-87
2022/07/14 07:25:58;;;;;;;2.15;0.90;;;;;;;29.57;30.39;100551.34;5343487;33;34171;-87
2022/07/14 07:29:03;;;;;;;0.70;0.70;;;;;;;29.40;30.40;100543.59;5344723;33;34147;-86
2022/07/14 07:32:07;;;;;;;2.78;0.90;;;;;;;29.44;30.46;100543.81;5340557;33;34434;-87
2022/07/14 07:35:10;;;;;;;1.20;0.98;;;;;;;29.53;30.85;100540.03;5345984;33;34063;-86
2022/07/14 07:38:13;;;;;;;1.00;1.00;;;;;;;29.48;30.88;100534.56;5342210;33;34602;-86
2022/07/14 07:41:16;;;;;;;0.70;0.70;;;;;;;29.31;31.29;100545.34;5344349;33;33987;-90
2022/07/14 07:44:19;;;;;;;1.27;1.10;;;;;;;29.13;31.29;100545.06;5341681;33;34520;-91
2022/07/14 07:47:23;;;;;;;1.23;1.10;;;;;;;29.21;31.02;100542.75;5339692;33;34806;-90
2022/07/14 07:50:26;;;;;;;0.68;0.62;;;;;;;29.51;30.98;100539.50;5343004;33;34934;-90
2022/07/14 07:53:32;;;;;;;3.97;0.80;;;;;;;29.64;29.95;100539.94;5320175;33;33434;-87
2022/07/14 07:56:36;;;;;;;0.77;0.70;;;;;;;29.66;29.81;100540.44;5331533;33;33901;-86
2022/07/14 07:59:39;;;;;;;0.65;0.65;;;;;;;29.82;29.69;100536.28;5336368;33;33544;-87
2022/07/14 08:02:52;;;;;;;1.95;1.05;;;;;;;29.97;29.74;100536.03;5337653;33;34398;-87
2022/07/14 08:05:56;;;;;;;0.60;0.60;;;;;;;30.22;28.92;100533.97;5335612;33;33573;-86
2022/07/14 08:09:18;;;;;;;1.55;0.70;;;;;;;30.40;28.14;100532.25;5327258;33;32582;-87
2022/07/14 08:12:21;;;;;;;0.60;0.60;;;;;;;30.69;27.95;100526.41;5340244;33;34761;-86
2022/07/14 08:15:25;;;;;;;0.70;0.70;;;;;;;30.84;27.06;100528.87;5340088;33;33585;-86
2022/07/14 08:18:28;;;;;;;1.52;0.88;;;;;;;30.92;26.85;100528.16;5318635;33;32444;-86
2022/07/14 08:21:30;;;;;;;0.68;0.68;;;;;;;30.83;27.00;100524.47;5338133;33;34078;-86
2022/07/14 08:24:34;;;;;;;0.85;0.68;;;;;;;30.97;27.45;100523.62;5329978;33;33005;-86
2022/07/14 08:27:36;;;;;;;0.60;0.60;;;;;;;31.03;26.82;100514.03;5336169;33;34110;-86
2022/07/14 08:30:40;;;;;;;3.97;0.88;;;;;;;31.18;25.72;100520.09;5329537;33;32354;-86
2022/07/14 08:33:42;;;;;;;2.47;0.80;;;;;;;31.47;25.80;100518.87;5347430;33;34142;-87
2022/07/14 08:36:45;;;;;;;0.82;0.68;;;;;;;31.76;26.37;100512.06;5338647;33;35427;-86
2022/07/14 08:39:48;;;;;;;1.37;0.85;;;;;;;31.88;25.24;100512.28;5326178;33;33420;-86
2022/07/14 08:42:53;;;;;;;6.85;0.95;;;;;;;32.14;25.26;100509.69;5341904;33;32469;-86
2022/07/14 08:45:58;;;;;;;0.90;0.85;;;;;;;31.85;24.73;100510.16;5338924;33;34829;-86
2022/07/14 08:49:01;;;;;;;0.93;0.62;;;;;;;32.03;24.48;100508.31;5342906;33;34878;-86
2022/07/14 08:52:05;;;;;;;1.17;0.62;;;;;;;32.20;24.61;100510.38;5324276;33;32583;-86
2022/07/14 08:55:10;;;;;;;0.60;0.60;;;;;;;32.35;23.68;100506.34;5325730;33;32381;-85
2022/07/14 08:58:14;;;;;;;0.70;0.60;;;;;;;32.45;23.51;100501.34;5336936;33;34366;-86
2022/07/14 09:01:17;;;;;;;2.00;0.80;;;;;;;32.33;23.56;100503.91;5340563;33;34141;-86
2022/07/14 09:08:06;;;;;;;0.60;0.60;;;;;;;32.34;23.33;100486.03;5371805;28;34036;-86
2022/07/14 09:11:17;;;;;;;1.60;1.00;;;;;;;32.54;23.04;100489.44;5344521;33;33282;-86
2022/07/14 09:14:22;;;;;;;0.60;0.60;;;;;;;32.47;23.31;100489.91;5354153;33;32513;-86
2022/07/14 09:21:26;;;;;;;1.62;0.65;;;;;;;32.92;22.69;100472.94;5353218;27;33110;-85
2022/07/14 09:24:29;;;;;;;1.33;0.60;;;;;;;33.22;22.74;100460.03;5343267;33;33898;-86
2022/07/14 09:27:32;;;;;;;0.47;0.47;;;;;;;33.37;22.52;100461.50;5355532;33;33304;-86
2022/07/14 09:30:35;;;;;;;0.60;0.52;;;;;;;33.34;22.61;100459.38;5350635;33;33600;-85
2022/07/14 09:33:42;;;;;;;0.50;0.50;;;;;;;33.25;22.46;100459.38;5339923;33;33068;-86
2022/07/14 09:36:45;;;;;;;0.55;0.55;;;;;;;33.37;22.13;100448.34;5359805;33;34252;-86
2022/07/14 09:39:52;;;;;;;0.60;0.60;;;;;;;33.44;21.31;100456.25;5359205;33;34278;-86
2022/07/14 09:43:02;;;;;;;1.15;0.70;;;;;;;33.38;21.57;100450.00;5359922;33;33331;-90
2022/07/14 09:46:05;;;;;;;0.73;0.62;;;;;;;33.44;21.67;100456.25;5360181;33;34607;-89
2022/07/14 09:49:08;;;;;;;2.72;0.90;;;;;;;33.05;21.69;100451.66;5348941;33;32391;-86
2022/07/14 09:52:11;;;;;;;0.68;0.68;;;;;;;33.70;21.79;100447.88;5357920;33;33831;-86
2022/07/14 09:55:22;;;;;;;0.65;0.65;;;;;;;34.16;21.26;100449.03;5354555;33;34599;-85
2022/07/14 09:58:54;;;;;;;0.82;0.80;;;;;;;34.63;20.28;100451.78;5354192;33;33973;-84
2022/07/14 10:01:58;;;;;;;0.60;0.60;;;;;;;34.72;20.43;100448.94;5337108;33;32339;-85
2022/07/14 10:05:01;;;;;;;0.52;0.52;;;;;;;34.25;20.13;100449.00;5344945;33;32174;-85
2022/07/14 10:08:07;;;;;;;2.85;0.80;;;;;;;33.69;20.75;100439.81;5359103;33;34159;-84
2022/07/14 10:11:11;;;;;;;0.65;0.65;;;;;;;33.70;20.96;100438.66;5355530;33;34034;-84
2022/07/14 10:14:16;;;;;;;2.35;0.80;;;;;;;33.49;21.19;100432.91;5353936;33;33908;-83
2022/07/14 10:17:19;;;;;;;1.15;0.73;;;;;;;33.87;21.08;100430.22;5354319;33;34105;-83
2022/07/14 10:20:23;;;;;;;2.17;0.62;;;;;;;34.28;20.67;100435.19;5355809;33;34136;-83
2022/07/14 10:23:29;;;;;;;0.60;0.60;;;;;;;34.69;20.16;100421.66;5339375;33;33978;-83
2022/07/14 10:26:32;;;;;;;2.25;0.80;;;;;;;34.87;19.73;100416.75;5331173;33;33107;-82
2022/07/14 10:29:37;;;;;;;0.88;0.70;;;;;;;34.99;19.67;100414.03;5321366;33;33899;-82
2022/07/14 10:33:01;;;;;;;0.93;0.75;;;;;;;35.14;19.27;100415.41;5337020;33;34196;-82
2022/07/14 10:36:23;;;;;;;0.70;0.70;;;;;;;35.56;19.26;100412.56;5340123;33;34070;-82
2022/07/14 10:39:37;;;;;;;1.85;0.80;;;;;;;35.84;19.17;100404.34;5341284;33;33619;-82
2022/07/14 10:43:06;;;;;;;0.70;0.70;;;;;;;36.45;18.56;100395.16;5340718;33;34070;-82
2022/07/14 10:46:33;;;;;;;0.60;0.60;;;;;;;36.69;18.60;100402.75;5336906;33;33996;-82
2022/07/14 10:50:18;;;;;;;1.00;0.73;;;;;;;37.19;17.94;100384.59;5333056;33;34227;-82
2022/07/14 10:53:21;;;;;;;2.78;0.70;;;;;;;37.29;17.67;100389.69;5339658;33;33952;-82
2022/07/14 10:56:28;;;;;;;0.80;0.80;;;;;;;37.73;17.80;100384.06;5331748;33;32653;-82
2022/07/14 10:59:32;;;;;;;0.60;0.60;;;;;;;38.00;17.24;100381.56;5357745;33;35012;-83
2022/07/14 11:02:36;;;;;;;0.70;0.70;;;;;;;38.35;16.95;100370.38;5358582;33;35268;-82
2022/07/14 11:06:11;;;;;;;1.75;0.88;;;;;;;38.52;16.57;100360.72;5345661;33;35275;-82
2022/07/14 11:14:00;;;;;;;3.08;0.80;;;;;;;38.23;16.23;100356.41;5336928;33;34087;-82
2022/07/14 11:17:03;;;;;;;2.10;0.80;;;;;;;37.38;16.68;100356.63;5337575;33;33558;-82
2022/07/14 11:20:10;;;;;;;4.03;0.90;;;;;;;38.03;16.79;100352.75;5328330;33;32488;-82
2022/07/14 11:23:22;;;;;;;1.65;0.70;;;;;;;37.81;16.92;100348.53;5320404;33;32077;-87
2022/07/14 11:26:44;;;;;;;0.60;0.60;;;;;;;39.28;16.38;100337.78;5330622;33;34017;-83
2022/07/14 11:29:51;;;;;;;0.47;0.47;;;;;;;39.65;14.91;100341.69;5326246;33;34220;-83
2022/07/14 11:33:12;;;;;;;0.85;0.73;;;;;;;40.56;14.26;100342.72;5327815;33;34589;-84
2022/07/14 11:36:18;;;;;;;0.60;0.45;;;;;;;41.32;13.66;100336.00;5341064;33;34510;-83
2022/07/14 11:39:44;;;;;;;0.62;0.50;;;;;;;41.54;12.97;100330.59;5351923;33;34337;-83
2022/07/14 11:43:25;;;;;;;1.55;0.50;;;;;;;43.13;12.10;100329.19;5343997;33;34146;-82
2022/07/14 11:46:28;;;;;;;1.55;0.60;;;;;;;43.28;11.40;100327.19;5318441;33;32319;-83
2022/07/14 11:49:33;;;;;;;0.40;0.40;;;;;;;42.36;11.91;100319.94;5329664;33;33897;-83
2022/07/14 11:52:39;;;;;;;0.30;0.30;;;;;;;43.30;11.85;100324.78;5329443;33;33852;-82
2022/07/14 11:55:42;;;;;;;0.70;0.40;;;;;;;42.18;12.53;100318.97;5340115;33;34003;-82
2022/07/14 11:58:45;;;;;;;0.47;0.40;;;;;;;40.61;13.41;100327.47;5322725;33;32477;-82
2022/07/14 12:01:48;;;;;;;0.40;0.40;;;;;;;38.66;14.68;100318.00;5326672;33;32827;-82
2022/07/14 12:04:57;;;;;;;0.70;0.70;;;;;;;40.23;14.20;100320.12;5324765;33;34604;-82
2022/07/14 12:08:02;;;;;;;0.70;0.40;;;;;;;41.03;13.05;100312.28;5325888;33;34376;-83
2022/07/14 12:11:14;;;;;;;0.40;0.40;;;;;;;42.41;12.08;100307.41;5336968;33;34060;-86
2022/07/14 12:14:18;;;;;;;0.43;0.43;;;;;;;43.03;11.43;100308.09;5337921;33;33700;-83
2022/07/14 12:17:23;;;;;;;1.62;0.55;;;;;;;43.35;11.15;100298.84;5336762;33;34066;-82
2022/07/14 12:20:26;;;;;;;2.72;0.68;;;;;;;43.54;11.33;100299.72;5328480;33;32571;-82
2022/07/14 12:23:29;;;;;;;2.95;0.47;;;;;;;45.09;10.38;100289.53;5338484;33;34724;-82
2022/07/14 12:26:33;;;;;;;0.80;0.52;;;;;;;46.82;9.37;100296.00;5338886;33;34140;-80
2022/07/14 12:29:45;;;;;;;0.57;0.40;;;;;;;46.34;9.42;100285.63;5318564;33;32446;-80
2022/07/14 12:32:53;;;;;;;1.30;0.40;;;;;;;47.51;8.56;100287.22;5330647;33;34124;-81
2022/07/14 12:35:59;;;;;;;0.30;0.30;;;;;;;47.84;8.47;100279.75;5329119;33;33682;-80
2022/07/14 12:39:04;;;;;;;4.37;0.88;;;;;;;47.30;8.88;100289.19;5337825;33;35248;-81
2022/07/14 12:42:08;;;;;;;0.47;0.47;;;;;;;46.87;9.28;100280.47;5324787;33;32302;-81
2022/07/14 12:45:11;;;;;;;1.83;0.60;;;;;;;47.79;8.37;100269.62;5337057;33;34587;-81
2022/07/14 12:48:14;;;;;;;1.00;0.50;;;;;;;48.07;8.44;100262.56;5331359;33;35308;-83
2022/07/14 12:51:21;;;;;;;0.95;0.60;;;;;;;47.85;8.47;100267.87;5328713;33;33581;-83
2022/07/14 12:54:32;;;;;;;0.30;0.30;;;;;;;48.07;8.60;100273.19;5329242;33;35068;-82
2022/07/14 12:58:02;;;;;;;0.60;0.60;;;;;;;48.79;7.72;100266.78;5322762;33;32777;-82
2022/07/14 13:01:12;;;;;;;0.55;0.43;;;;;;;48.29;7.70;100250.72;5327733;33;33947;-80
2022/07/14 13:04:40;;;;;;;0.35;0.35;;;;;;;47.63;7.87;100247.50;5342014;33;34604;-82
2022/07/14 13:07:43;;;;;;;1.02;0.40;;;;;;;48.26;7.79;100255.28;5334546;33;121572;-81
2022/07/14 13:11:00;;;;;;;0.40;0.40;;;;;;;47.38;7.94;100250.75;5328875;33;33883;-81
2022/07/14 13:14:05;;;;;;;0.40;0.40;;;;;;;49.21;7.06;100236.44;5311576;33;32418;-82
2022/07/14 13:17:08;;;;;;;2.53;0.45;;;;;;;47.86;7.52;100240.97;5338334;33;34004;-82
2022/07/14 13:20:48;;;;;;;0.40;0.40;;;;;;;48.47;7.36;100239.72;5337996;33;34098;-82
2022/07/14 13:23:52;;;;;;;0.40;0.35;;;;;;;49.29;6.96;100239.91;5339291;33;34210;-82
2022/07/14 13:27:01;;;;;;;0.52;0.40;;;;;;;46.20;8.35;100234.53;5341967;33;34406;-82
2022/07/14 13:30:04;;;;;;;0.40;0.40;;;;;;;45.63;8.97;100230.25;5341546;33;34127;-81
2022/07/14 13:33:07;;;;;;;0.30;0.30;;;;;;;43.08;10.17;100230.37;5342108;33;34562;-83
2022/07/14 13:36:19;;;;;;;1.00;0.60;;;;;;;41.37;11.30;100231.13;5342206;33;34608;-83
2022/07/14 13:39:23;;;;;;;0.52;0.50;;;;;;;40.43;11.78;100228.50;5334865;33;33908;-83
2022/07/14 13:42:29;;;;;;;0.40;0.40;;;;;;;40.58;11.92;100229.47;5331270;33;33811;-83
2022/07/14 13:45:32;;;;;;;0.62;0.37;;;;;;;43.14;10.32;100217.47;5335092;33;34252;-83
2022/07/14 13:48:36;;;;;;;0.82;0.40;;;;;;;45.36;8.96;100208.12;5332098;33;34529;-83
2022/07/14 13:55:01;;;;;;;0.65;0.52;;;;;;;48.19;7.77;100211.81;5341847;33;35065;-83
2022/07/14 13:58:04;;;;;;;0.40;0.40;;;;;;;48.44;7.63;100205.53;5338505;33;34241;-83
2022/07/14 14:01:07;;;;;;;1.95;0.45;;;;;;;48.70;7.50;100201.66;5314725;33;32379;-83
2022/07/14 14:04:12;;;;;;;0.47;0.47;;;;;;;48.65;7.52;100193.66;5326765;33;32859;-84
2022/07/14 14:07:25;;;;;;;;;;;;;;;46.76;8.38;100186.59;5337340;33;34287;-84
2022/07/14 14:10:28;;;;;;;1.12;0.45;;;;;;;45.90;8.61;100191.38;5328513;33;34610;-84
2022/07/14 14:17:28;;;;;;;0.88;0.88;;;;;;;43.80;9.86;100180.16;5360750;27;34001;-84
2022/07/14 14:20:31;;;;;;;0.40;0.40;;;;;;;41.71;11.56;100182.09;5328874;33;32526;-84
2022/07/14 14:23:35;;;;;;;0.62;0.40;;;;;;;40.73;12.51;100174.00;5340703;33;34012;-83
2022/07/14 14:26:38;;;;;;;1.23;0.70;;;;;;;40.48;12.97;100185.00;5351902;33;34006;-83
2022/07/14 14:29:42;;;;;;;1.83;0.60;;;;;;;39.67;13.48;100177.88;5341383;33;33592;-83
2022/07/14 14:32:45;;;;;;;4.32;0.90;;;;;;;39.39;13.41;100181.06;5364063;27;34694;-83
2022/07/14 14:35:49;;;;;;;2.45;0.98;;;;;;;38.95;13.93;100173.06;5359509;33;34381;-83
2022/07/14 14:38:52;;;;;;;2.10;0.60;;;;;;;38.41;14.42;100176.81;5366462;33;34509;-83
2022/07/14 14:42:03;;;;;;;0.70;0.70;;;;;;;37.89;14.54;100174.09;5372428;33;33897;-83
2022/07/14 14:45:07;;;;;;;1.10;0.62;;;;;;;37.31;14.88;100173.94;5370790;33;34621;-84
2022/07/14 14:48:11;;;;;;;0.45;0.45;;;;;;;37.31;15.08;100164.69;5362253;33;33920;-84
2022/07/14 14:51:13;;;;;;;0.65;0.65;;;;;;;37.26;15.30;100170.56;5362014;33;34146;-84
2022/07/14 14:54:16;;;;;;;0.85;0.70;;;;;;;37.14;15.16;100154.66;5347766;33;33945;-84
2022/07/14 14:57:20;;;;;;;1.15;0.50;;;;;;;36.91;15.74;100174.06;5342957;33;32994;-82
2022/07/14 15:00:24;;;;;;;0.57;0.57;;;;;;;36.82;15.72;100157.41;5359737;33;34717;-87
2022/07/14 15:03:27;;;;;;;0.75;0.70;;;;;;;36.64;15.99;100151.34;5361400;33;35816;-87
2022/07/14 15:06:30;;;;;;;0.88;0.80;;;;;;;36.37;15.98;100138.94;5360803;33;33936;-87
2022/07/14 15:09:33;;;;;;;0.82;0.82;;;;;;;36.32;15.98;100140.00;5360985;33;34299;-84
2022/07/14 15:12:37;;;;;;;1.35;0.70;;;;;;;35.98;16.45;100138.63;5360578;33;34012;-84
2022/07/14 15:15:40;;;;;;;0.60;0.60;;;;;;;35.69;16.54;100134.16;5354195;33;34017;-83
2022/07/14 15:18:43;;;;;;;0.80;0.80;;;;;;;35.58;16.77;100135.78;5356286;33;33914;-83
2022/07/14 15:21:46;;;;;;;1.25;0.60;;;;;;;35.51;17.07;100130.75;5359854;33;33455;-83
2022/07/14 15:24:50;;;;;;;0.70;0.70;;;;;;;35.38;16.98;100126.34;5352858;33;34431;-83
2022/07/14 15:27:53;;;;;;;1.48;1.10;;;;;;;35.29;17.30;100132.06;5360655;33;33869;-83
2022/07/14 15:30:57;;;;;;;0.60;0.60;;;;;;;35.27;16.92;100125.16;5360543;33;33937;-83
2022/07/14 15:34:00;;;;;;;2.40;0.98;;;;;;;35.26;17.83;100124.34;5350893;33;35035;-83
2022/07/14 15:37:03;;;;;;;0.55;0.55;;;;;;;35.14;17.70;100113.19;5342540;33;33486;-83
2022/07/14 15:43:29;;;;;;;1.67;1.10;;;;;;;35.62;17.75;100112.31;5323090;33;33554;-83
2022/07/14 15:46:32;;;;;;;0.60;0.60;;;;;;;35.69;17.52;100097.75;5328008;33;32809;-83
2022/07/14 15:49:35;;;;;;;1.05;0.80;;;;;;;35.64;17.41;100107.19;5351274;33;34259;-83
2022/07/14 15:52:38;;;;;;;0.73;0.73;;;;;;;35.75;17.03;100096.31;5341416;33;33903;-83
